sensor_id;sensor_type;location;lat;lon;timestamp;P1;durP1;ratioP1;P2;durP2;ratioP2
67721;SDS011;58309;45.292;11.820;2023-01-13T00:00:44;96.43;;;54.83;;
67721;SDS011;58309;45.292;11.820;2023-01-13T00:03:10;94.53;;;56.40;;
67721;SDS011;58309;45.292;11.820;2023-01-13T00:05:36;90.63;;;54.72;;
67721;SDS011;58309;45.292;11.820;2023-01-13T00:08:03;93.18;;;54.53;;
67721;SDS011;58309;45.292;11.820;2023-01-13T00:10:30;91.07;;;55.75;;
67721;SDS011;58309;45.292;11.820;2023-01-13T00:12:57;92.07;;;54.72;;
67721;SDS011;58309;45.292;11.820;2023-01-13T00:15:23;92.00;;;54.92;;
67721;SDS011;58309;45.292;11.820;2023-01-13T00:17:48;95.75;;;57.17;;
67721;SDS011;58309;45.292;11.820;2023-01-13T00:20:14;89.70;;;56.17;;
67721;SDS011;58309;45.292;11.820;2023-01-13T00:22:40;91.55;;;56.92;;
67721;SDS011;58309;45.292;11.820;2023-01-13T00:25:05;97.03;;;58.28;;
67721;SDS011;58309;45.292;11.820;2023-01-13T00:27:31;91.38;;;56.55;;
67721;SDS011;58309;45.292;11.820;2023-01-13T00:29:57;91.32;;;53.33;;
67721;SDS011;58309;45.292;11.820;2023-01-13T00:32:23;90.03;;;56.40;;
67721;SDS011;58309;45.292;11.820;2023-01-13T00:34:48;88.78;;;54.03;;
67721;SDS011;58309;45.292;11.820;2023-01-13T00:37:14;92.68;;;54.42;;
67721;SDS011;58309;45.292;11.820;2023-01-13T00:39:40;91.20;;;54.35;;
67721;SDS011;58309;45.292;11.820;2023-01-13T00:42:06;89.80;;;53.15;;
67721;SDS011;58309;45.292;11.820;2023-01-13T00:44:50;89.82;;;52.88;;
67721;SDS011;58309;45.292;11.820;2023-01-13T00:47:16;85.88;;;50.72;;
67721;SDS011;58309;45.292;11.820;2023-01-13T00:49:42;88.57;;;51.47;;
67721;SDS011;58309;45.292;11.820;2023-01-13T00:52:08;90.07;;;51.17;;
67721;SDS011;58309;45.292;11.820;2023-01-13T00:54:34;87.90;;;50.08;;
67721;SDS011;58309;45.292;11.820;2023-01-13T00:57:00;85.85;;;51.38;;
67721;SDS011;58309;45.292;11.820;2023-01-13T00:59:25;86.70;;;52.33;;
67721;SDS011;58309;45.292;11.820;2023-01-13T01:01:51;82.53;;;50.83;;
67721;SDS011;58309;45.292;11.820;2023-01-13T01:04:16;85.10;;;51.17;;
67721;SDS011;58309;45.292;11.820;2023-01-13T01:06:42;78.05;;;50.00;;
67721;SDS011;58309;45.292;11.820;2023-01-13T01:09:09;92.47;;;50.88;;
67721;SDS011;58309;45.292;11.820;2023-01-13T01:11:38;84.80;;;49.78;;
67721;SDS011;58309;45.292;11.820;2023-01-13T01:14:04;85.07;;;51.72;;
67721;SDS011;58309;45.292;11.820;2023-01-13T01:16:31;83.82;;;50.95;;
67721;SDS011;58309;45.292;11.820;2023-01-13T01:18:57;81.97;;;50.45;;
67721;SDS011;58309;45.292;11.820;2023-01-13T01:21:23;82.90;;;51.70;;
67721;SDS011;58309;45.292;11.820;2023-01-13T01:23:50;91.38;;;51.10;;
67721;SDS011;58309;45.292;11.820;2023-01-13T01:26:18;81.95;;;49.13;;
67721;SDS011;58309;45.292;11.820;2023-01-13T01:28:45;76.35;;;47.00;;
67721;SDS011;58309;45.292;11.820;2023-01-13T01:31:15;76.65;;;46.28;;
67721;SDS011;58309;45.292;11.820;2023-01-13T01:33:46;77.50;;;45.78;;
67721;SDS011;58309;45.292;11.820;2023-01-13T01:36:12;77.05;;;44.42;;
67721;SDS011;58309;45.292;11.820;2023-01-13T01:38:39;71.25;;;44.50;;
67721;SDS011;58309;45.292;11.820;2023-01-13T01:41:05;73.82;;;45.35;;
67721;SDS011;58309;45.292;11.820;2023-01-13T01:46:42;72.25;;;43.83;;
67721;SDS011;58309;45.292;11.820;2023-01-13T01:54:36;69.32;;;43.22;;
67721;SDS011;58309;45.292;11.820;2023-01-13T01:57:04;64.57;;;41.65;;
67721;SDS011;58309;45.292;11.820;2023-01-13T01:59:33;72.50;;;43.57;;
67721;SDS011;58309;45.292;11.820;2023-01-13T02:02:00;77.00;;;46.63;;
67721;SDS011;58309;45.292;11.820;2023-01-13T02:04:32;73.07;;;46.20;;
67721;SDS011;58309;45.292;11.820;2023-01-13T02:07:00;80.53;;;47.28;;
67721;SDS011;58309;45.292;11.820;2023-01-13T02:09:27;80.80;;;46.15;;
67721;SDS011;58309;45.292;11.820;2023-01-13T02:11:54;74.97;;;45.65;;
67721;SDS011;58309;45.292;11.820;2023-01-13T02:14:38;83.90;;;46.35;;
67721;SDS011;58309;45.292;11.820;2023-01-13T02:19:42;80.72;;;48.17;;
67721;SDS011;58309;45.292;11.820;2023-01-13T02:25:36;74.78;;;45.42;;
67721;SDS011;58309;45.292;11.820;2023-01-13T02:28:34;74.32;;;45.33;;
67721;SDS011;58309;45.292;11.820;2023-01-13T02:31:24;73.07;;;45.35;;
67721;SDS011;58309;45.292;11.820;2023-01-13T02:34:07;78.20;;;45.83;;
67721;SDS011;58309;45.292;11.820;2023-01-13T02:37:03;73.22;;;44.83;;
67721;SDS011;58309;45.292;11.820;2023-01-13T02:39:34;70.57;;;44.65;;
67721;SDS011;58309;45.292;11.820;2023-01-13T02:42:09;69.57;;;43.78;;
67721;SDS011;58309;45.292;11.820;2023-01-13T02:45:02;71.32;;;43.10;;
67721;SDS011;58309;45.292;11.820;2023-01-13T02:47:32;68.30;;;43.15;;
67721;SDS011;58309;45.292;11.820;2023-01-13T02:50:02;69.07;;;45.15;;
67721;SDS011;58309;45.292;11.820;2023-01-13T02:52:32;73.35;;;46.45;;
67721;SDS011;58309;45.292;11.820;2023-01-13T02:55:04;74.75;;;45.90;;
67721;SDS011;58309;45.292;11.820;2023-01-13T02:57:34;77.88;;;46.70;;
67721;SDS011;58309;45.292;11.820;2023-01-13T03:00:02;87.05;;;49.58;;
67721;SDS011;58309;45.292;11.820;2023-01-13T03:02:31;81.38;;;49.72;;
67721;SDS011;58309;45.292;11.820;2023-01-13T03:04:57;90.10;;;51.33;;
67721;SDS011;58309;45.292;11.820;2023-01-13T03:21:14;74.38;;;44.80;;
67721;SDS011;58309;45.292;11.820;2023-01-13T03:23:50;70.45;;;43.53;;
67721;SDS011;58309;45.292;11.820;2023-01-13T03:29:01;81.32;;;46.00;;
67721;SDS011;58309;45.292;11.820;2023-01-13T03:31:34;76.32;;;45.10;;
67721;SDS011;58309;45.292;11.820;2023-01-13T03:34:08;79.43;;;45.97;;
67721;SDS011;58309;45.292;11.820;2023-01-13T03:36:41;89.43;;;49.58;;
67721;SDS011;58309;45.292;11.820;2023-01-13T03:39:11;91.22;;;51.10;;
67721;SDS011;58309;45.292;11.820;2023-01-13T03:41:40;95.72;;;53.75;;
67721;SDS011;58309;45.292;11.820;2023-01-13T03:44:16;103.88;;;52.90;;
67721;SDS011;58309;45.292;11.820;2023-01-13T03:46:51;100.35;;;55.17;;
67721;SDS011;58309;45.292;11.820;2023-01-13T03:49:34;98.78;;;55.88;;
67721;SDS011;58309;45.292;11.820;2023-01-13T03:52:04;94.57;;;53.17;;
67721;SDS011;58309;45.292;11.820;2023-01-13T03:54:35;96.47;;;52.80;;
67721;SDS011;58309;45.292;11.820;2023-01-13T03:57:09;92.05;;;52.97;;
67721;SDS011;58309;45.292;11.820;2023-01-13T03:59:40;87.78;;;51.70;;
67721;SDS011;58309;45.292;11.820;2023-01-13T04:02:09;89.03;;;52.40;;
67721;SDS011;58309;45.292;11.820;2023-01-13T04:05:00;90.95;;;51.20;;
67721;SDS011;58309;45.292;11.820;2023-01-13T04:10:17;90.05;;;49.42;;
67721;SDS011;58309;45.292;11.820;2023-01-13T04:12:49;88.43;;;50.08;;
67721;SDS011;58309;45.292;11.820;2023-01-13T04:15:41;92.00;;;51.15;;
67721;SDS011;58309;45.292;11.820;2023-01-13T04:20:37;82.70;;;47.90;;
67721;SDS011;58309;45.292;11.820;2023-01-13T04:23:04;89.85;;;49.88;;
67721;SDS011;58309;45.292;11.820;2023-01-13T04:25:30;81.18;;;49.35;;
67721;SDS011;58309;45.292;11.820;2023-01-13T04:27:56;86.18;;;51.28;;
67721;SDS011;58309;45.292;11.820;2023-01-13T04:30:21;85.45;;;50.55;;
67721;SDS011;58309;45.292;11.820;2023-01-13T04:32:47;80.43;;;48.10;;
67721;SDS011;58309;45.292;11.820;2023-01-13T04:35:13;85.85;;;48.55;;
67721;SDS011;58309;45.292;11.820;2023-01-13T04:37:38;84.75;;;48.38;;
67721;SDS011;58309;45.292;11.820;2023-01-13T04:40:04;77.53;;;44.95;;
67721;SDS011;58309;45.292;11.820;2023-01-13T04:42:30;78.55;;;45.72;;
67721;SDS011;58309;45.292;11.820;2023-01-13T04:44:56;70.30;;;43.53;;
67721;SDS011;58309;45.292;11.820;2023-01-13T04:47:21;78.03;;;44.35;;
67721;SDS011;58309;45.292;11.820;2023-01-13T04:49:47;71.88;;;44.25;;
67721;SDS011;58309;45.292;11.820;2023-01-13T04:52:12;69.63;;;43.42;;
67721;SDS011;58309;45.292;11.820;2023-01-13T04:54:38;66.03;;;41.67;;
67721;SDS011;58309;45.292;11.820;2023-01-13T04:57:03;68.97;;;41.10;;
67721;SDS011;58309;45.292;11.820;2023-01-13T04:59:29;68.18;;;41.67;;
67721;SDS011;58309;45.292;11.820;2023-01-13T05:01:54;70.07;;;43.20;;
67721;SDS011;58309;45.292;11.820;2023-01-13T05:04:20;68.32;;;42.92;;
67721;SDS011;58309;45.292;11.820;2023-01-13T05:06:45;71.00;;;42.72;;
67721;SDS011;58309;45.292;11.820;2023-01-13T05:09:11;69.22;;;42.72;;
67721;SDS011;58309;45.292;11.820;2023-01-13T05:11:37;69.97;;;43.28;;
67721;SDS011;58309;45.292;11.820;2023-01-13T05:14:21;65.28;;;42.05;;
67721;SDS011;58309;45.292;11.820;2023-01-13T05:17:06;66.32;;;40.85;;
67721;SDS011;58309;45.292;11.820;2023-01-13T05:19:34;69.88;;;41.50;;
67721;SDS011;58309;45.292;11.820;2023-01-13T05:22:01;67.43;;;42.70;;
67721;SDS011;58309;45.292;11.820;2023-01-13T05:24:45;65.38;;;39.42;;
67721;SDS011;58309;45.292;11.820;2023-01-13T05:27:30;62.00;;;38.65;;
67721;SDS011;58309;45.292;11.820;2023-01-13T05:29:56;58.67;;;37.58;;
67721;SDS011;58309;45.292;11.820;2023-01-13T05:32:22;64.35;;;38.67;;
67721;SDS011;58309;45.292;11.820;2023-01-13T05:34:48;57.30;;;37.45;;
67721;SDS011;58309;45.292;11.820;2023-01-13T05:37:14;62.22;;;40.80;;
67721;SDS011;58309;45.292;11.820;2023-01-13T05:39:40;81.95;;;46.53;;
67721;SDS011;58309;45.292;11.820;2023-01-13T05:42:24;60.80;;;39.67;;
67721;SDS011;58309;45.292;11.820;2023-01-13T05:45:08;61.95;;;37.55;;
67721;SDS011;58309;45.292;11.820;2023-01-13T05:47:35;62.35;;;38.20;;
67721;SDS011;58309;45.292;11.820;2023-01-13T05:50:00;53.00;;;35.10;;
67721;SDS011;58309;45.292;11.820;2023-01-13T05:52:26;50.78;;;33.22;;
67721;SDS011;58309;45.292;11.820;2023-01-13T05:54:52;48.75;;;33.17;;
67721;SDS011;58309;45.292;11.820;2023-01-13T05:57:18;51.40;;;32.33;;
67721;SDS011;58309;45.292;11.820;2023-01-13T05:59:43;50.00;;;31.23;;
67721;SDS011;58309;45.292;11.820;2023-01-13T06:02:09;48.30;;;31.90;;
67721;SDS011;58309;45.292;11.820;2023-01-13T06:04:34;50.58;;;32.00;;
67721;SDS011;58309;45.292;11.820;2023-01-13T06:07:00;47.78;;;32.72;;
67721;SDS011;58309;45.292;11.820;2023-01-13T06:09:25;57.20;;;31.55;;
67721;SDS011;58309;45.292;11.820;2023-01-13T06:11:51;48.90;;;31.70;;
67721;SDS011;58309;45.292;11.820;2023-01-13T06:14:16;47.30;;;30.25;;
67721;SDS011;58309;45.292;11.820;2023-01-13T06:16:42;46.83;;;29.73;;
67721;SDS011;58309;45.292;11.820;2023-01-13T06:19:09;46.42;;;31.45;;
67721;SDS011;58309;45.292;11.820;2023-01-13T06:21:40;47.45;;;30.88;;
67721;SDS011;58309;45.292;11.820;2023-01-13T06:24:08;43.90;;;28.58;;
67721;SDS011;58309;45.292;11.820;2023-01-13T06:26:35;44.22;;;28.80;;
67721;SDS011;58309;45.292;11.820;2023-01-13T06:29:03;42.25;;;27.65;;
67721;SDS011;58309;45.292;11.820;2023-01-13T06:31:30;38.47;;;25.80;;
67721;SDS011;58309;45.292;11.820;2023-01-13T06:34:01;43.03;;;26.52;;
67721;SDS011;58309;45.292;11.820;2023-01-13T06:36:39;39.05;;;26.48;;
67721;SDS011;58309;45.292;11.820;2023-01-13T06:39:08;41.45;;;26.75;;
67721;SDS011;58309;45.292;11.820;2023-01-13T06:41:35;41.17;;;26.80;;
67721;SDS011;58309;45.292;11.820;2023-01-13T06:44:19;38.10;;;25.48;;
67721;SDS011;58309;45.292;11.820;2023-01-13T06:46:47;39.45;;;25.27;;
67721;SDS011;58309;45.292;11.820;2023-01-13T06:49:13;38.28;;;25.23;;
67721;SDS011;58309;45.292;11.820;2023-01-13T06:51:38;43.88;;;24.35;;
67721;SDS011;58309;45.292;11.820;2023-01-13T06:54:04;39.05;;;24.15;;
67721;SDS011;58309;45.292;11.820;2023-01-13T06:56:29;41.42;;;25.25;;
67721;SDS011;58309;45.292;11.820;2023-01-13T06:58:55;40.78;;;24.95;;
67721;SDS011;58309;45.292;11.820;2023-01-13T07:01:20;42.05;;;25.95;;
67721;SDS011;58309;45.292;11.820;2023-01-13T07:03:46;38.17;;;24.40;;
67721;SDS011;58309;45.292;11.820;2023-01-13T07:06:11;36.05;;;25.17;;
67721;SDS011;58309;45.292;11.820;2023-01-13T07:08:37;43.05;;;26.88;;
67721;SDS011;58309;45.292;11.820;2023-01-13T07:11:02;38.45;;;26.65;;
67721;SDS011;58309;45.292;11.820;2023-01-13T07:13:28;40.83;;;26.17;;
67721;SDS011;58309;45.292;11.820;2023-01-13T07:16:14;41.13;;;26.65;;
67721;SDS011;58309;45.292;11.820;2023-01-13T07:18:39;39.75;;;24.30;;
67721;SDS011;58309;45.292;11.820;2023-01-13T07:21:06;38.10;;;24.92;;
67721;SDS011;58309;45.292;11.820;2023-01-13T07:23:34;36.20;;;23.65;;
67721;SDS011;58309;45.292;11.820;2023-01-13T07:26:01;34.88;;;23.73;;
67721;SDS011;58309;45.292;11.820;2023-01-13T07:28:28;39.33;;;27.00;;
67721;SDS011;58309;45.292;11.820;2023-01-13T07:30:54;36.60;;;24.88;;
67721;SDS011;58309;45.292;11.820;2023-01-13T07:33:20;34.17;;;25.30;;
67721;SDS011;58309;45.292;11.820;2023-01-13T07:35:46;39.38;;;23.10;;
67721;SDS011;58309;45.292;11.820;2023-01-13T07:38:13;37.03;;;25.38;;
67721;SDS011;58309;45.292;11.820;2023-01-13T07:40:39;37.42;;;25.25;;
67721;SDS011;58309;45.292;11.820;2023-01-13T07:43:05;34.25;;;23.63;;
67721;SDS011;58309;45.292;11.820;2023-01-13T07:46:02;35.67;;;23.42;;
67721;SDS011;58309;45.292;11.820;2023-01-13T07:50:59;32.15;;;22.15;;
67721;SDS011;58309;45.292;11.820;2023-01-13T07:53:33;42.15;;;25.27;;
67721;SDS011;58309;45.292;11.820;2023-01-13T07:55:59;53.13;;;33.42;;
67721;SDS011;58309;45.292;11.820;2023-01-13T07:58:25;37.35;;;24.88;;
67721;SDS011;58309;45.292;11.820;2023-01-13T08:00:52;36.33;;;22.48;;
67721;SDS011;58309;45.292;11.820;2023-01-13T08:03:18;31.80;;;20.33;;
67721;SDS011;58309;45.292;11.820;2023-01-13T08:05:44;31.65;;;22.45;;
67721;SDS011;58309;45.292;11.820;2023-01-13T08:08:09;32.35;;;22.05;;
67721;SDS011;58309;45.292;11.820;2023-01-13T08:10:35;31.88;;;22.02;;
67721;SDS011;58309;45.292;11.820;2023-01-13T08:13:08;32.45;;;21.17;;
67721;SDS011;58309;45.292;11.820;2023-01-13T08:15:45;34.28;;;22.17;;
67721;SDS011;58309;45.292;11.820;2023-01-13T08:18:14;32.25;;;22.58;;
67721;SDS011;58309;45.292;11.820;2023-01-13T08:20:39;34.35;;;21.35;;
67721;SDS011;58309;45.292;11.820;2023-01-13T08:23:05;31.73;;;20.50;;
67721;SDS011;58309;45.292;11.820;2023-01-13T08:25:31;44.08;;;24.48;;
67721;SDS011;58309;45.292;11.820;2023-01-13T08:27:57;37.22;;;24.08;;
67721;SDS011;58309;45.292;11.820;2023-01-13T08:30:24;34.20;;;22.30;;
67721;SDS011;58309;45.292;11.820;2023-01-13T08:32:51;38.00;;;25.00;;
67721;SDS011;58309;45.292;11.820;2023-01-13T08:35:17;31.55;;;21.70;;
67721;SDS011;58309;45.292;11.820;2023-01-13T08:37:44;30.60;;;18.15;;
67721;SDS011;58309;45.292;11.820;2023-01-13T08:40:11;28.55;;;18.25;;
67721;SDS011;58309;45.292;11.820;2023-01-13T08:42:38;25.40;;;18.25;;
67721;SDS011;58309;45.292;11.820;2023-01-13T08:45:04;24.60;;;18.70;;
67721;SDS011;58309;45.292;11.820;2023-01-13T08:47:30;24.25;;;18.23;;
67721;SDS011;58309;45.292;11.820;2023-01-13T08:49:56;25.92;;;17.23;;
67721;SDS011;58309;45.292;11.820;2023-01-13T08:52:21;24.58;;;17.40;;
67721;SDS011;58309;45.292;11.820;2023-01-13T08:54:47;27.77;;;17.52;;
67721;SDS011;58309;45.292;11.820;2023-01-13T08:57:13;26.35;;;15.70;;
67721;SDS011;58309;45.292;11.820;2023-01-13T08:59:39;21.10;;;16.50;;
67721;SDS011;58309;45.292;11.820;2023-01-13T09:02:14;24.08;;;17.10;;
67721;SDS011;58309;45.292;11.820;2023-01-13T09:04:42;21.50;;;16.23;;
67721;SDS011;58309;45.292;11.820;2023-01-13T09:07:08;22.98;;;16.83;;
67721;SDS011;58309;45.292;11.820;2023-01-13T09:09:33;23.05;;;16.75;;
67721;SDS011;58309;45.292;11.820;2023-01-13T09:11:59;23.67;;;16.35;;
67721;SDS011;58309;45.292;11.820;2023-01-13T09:14:43;21.85;;;15.48;;
67721;SDS011;58309;45.292;11.820;2023-01-13T09:17:09;25.15;;;17.30;;
67721;SDS011;58309;45.292;11.820;2023-01-13T09:19:34;29.55;;;18.67;;
67721;SDS011;58309;45.292;11.820;2023-01-13T09:22:00;24.58;;;16.23;;
67721;SDS011;58309;45.292;11.820;2023-01-13T09:24:26;22.75;;;15.98;;
67721;SDS011;58309;45.292;11.820;2023-01-13T09:26:52;27.58;;;16.90;;
67721;SDS011;58309;45.292;11.820;2023-01-13T09:29:18;24.17;;;17.08;;
67721;SDS011;58309;45.292;11.820;2023-01-13T09:31:44;24.27;;;17.50;;
67721;SDS011;58309;45.292;11.820;2023-01-13T09:34:11;23.92;;;17.15;;
67721;SDS011;58309;45.292;11.820;2023-01-13T09:36:57;27.30;;;16.73;;
67721;SDS011;58309;45.292;11.820;2023-01-13T09:39:23;22.33;;;16.65;;
67721;SDS011;58309;45.292;11.820;2023-01-13T09:41:49;26.75;;;17.27;;
67721;SDS011;58309;45.292;11.820;2023-01-13T09:44:40;23.20;;;16.65;;
67721;SDS011;58309;45.292;11.820;2023-01-13T09:52:42;28.73;;;19.25;;
67721;SDS011;58309;45.292;11.820;2023-01-13T09:55:10;32.53;;;20.83;;
67721;SDS011;58309;45.292;11.820;2023-01-13T09:57:40;30.48;;;20.65;;
67721;SDS011;58309;45.292;11.820;2023-01-13T10:00:10;25.13;;;17.85;;
67721;SDS011;58309;45.292;11.820;2023-01-13T10:08:42;34.17;;;20.42;;
67721;SDS011;58309;45.292;11.820;2023-01-13T10:11:19;20.88;;;16.63;;
67721;SDS011;58309;45.292;11.820;2023-01-13T10:16:48;20.63;;;15.95;;
67721;SDS011;58309;45.292;11.820;2023-01-13T10:19:21;25.20;;;16.25;;
67721;SDS011;58309;45.292;11.820;2023-01-13T10:22:05;26.85;;;18.33;;
67721;SDS011;58309;45.292;11.820;2023-01-13T10:27:49;20.40;;;14.93;;
67721;SDS011;58309;45.292;11.820;2023-01-13T10:32:55;23.38;;;17.45;;
67721;SDS011;58309;45.292;11.820;2023-01-13T10:38:31;22.98;;;16.38;;
67721;SDS011;58309;45.292;11.820;2023-01-13T10:43:40;22.33;;;15.63;;
67721;SDS011;58309;45.292;11.820;2023-01-13T10:46:14;21.92;;;16.73;;
67721;SDS011;58309;45.292;11.820;2023-01-13T10:48:50;28.27;;;17.65;;
67721;SDS011;58309;45.292;11.820;2023-01-13T10:54:01;22.40;;;16.33;;
67721;SDS011;58309;45.292;11.820;2023-01-13T10:56:36;24.80;;;17.25;;
67721;SDS011;58309;45.292;11.820;2023-01-13T11:02:01;26.25;;;18.00;;
67721;SDS011;58309;45.292;11.820;2023-01-13T11:04:40;26.08;;;17.27;;
67721;SDS011;58309;45.292;11.820;2023-01-13T11:10:30;25.40;;;18.48;;
67721;SDS011;58309;45.292;11.820;2023-01-13T11:18:39;27.02;;;19.05;;
67721;SDS011;58309;45.292;11.820;2023-01-13T11:24:31;25.58;;;18.02;;
67721;SDS011;58309;45.292;11.820;2023-01-13T11:27:18;27.08;;;18.15;;
67721;SDS011;58309;45.292;11.820;2023-01-13T11:35:24;25.10;;;16.55;;
67721;SDS011;58309;45.292;11.820;2023-01-13T11:37:52;24.55;;;17.67;;
67721;SDS011;58309;45.292;11.820;2023-01-13T11:40:26;34.70;;;22.23;;
67721;SDS011;58309;45.292;11.820;2023-01-13T11:46:01;26.90;;;17.50;;
67721;SDS011;58309;45.292;11.820;2023-01-13T11:48:28;27.85;;;18.50;;
67721;SDS011;58309;45.292;11.820;2023-01-13T11:51:03;37.07;;;20.70;;
67721;SDS011;58309;45.292;11.820;2023-01-13T11:56:39;22.02;;;16.85;;
67721;SDS011;58309;45.292;11.820;2023-01-13T11:59:24;23.77;;;16.73;;
67721;SDS011;58309;45.292;11.820;2023-01-13T12:10:33;24.75;;;16.52;;
67721;SDS011;58309;45.292;11.820;2023-01-13T12:15:50;22.52;;;16.42;;
67721;SDS011;58309;45.292;11.820;2023-01-13T12:18:39;32.25;;;20.98;;
67721;SDS011;58309;45.292;11.820;2023-01-13T12:21:23;33.60;;;20.88;;
67721;SDS011;58309;45.292;11.820;2023-01-13T12:26:42;22.90;;;16.70;;
67721;SDS011;58309;45.292;11.820;2023-01-13T12:29:28;42.03;;;23.30;;
67721;SDS011;58309;45.292;11.820;2023-01-13T12:31:58;29.92;;;20.58;;
67721;SDS011;58309;45.292;11.820;2023-01-13T12:34:30;29.70;;;19.67;;
67721;SDS011;58309;45.292;11.820;2023-01-13T12:37:09;34.05;;;19.77;;
67721;SDS011;58309;45.292;11.820;2023-01-13T12:42:37;29.73;;;17.30;;
67721;SDS011;58309;45.292;11.820;2023-01-13T12:45:31;23.10;;;16.20;;
67721;SDS011;58309;45.292;11.820;2023-01-13T12:47:57;25.55;;;17.60;;
67721;SDS011;58309;45.292;11.820;2023-01-13T12:52:50;26.27;;;19.00;;
67721;SDS011;58309;45.292;11.820;2023-01-13T12:55:21;30.13;;;21.60;;
67721;SDS011;58309;45.292;11.820;2023-01-13T13:03:26;27.17;;;17.55;;
67721;SDS011;58309;45.292;11.820;2023-01-13T13:09:01;24.08;;;17.77;;
67721;SDS011;58309;45.292;11.820;2023-01-13T13:14:14;26.98;;;17.88;;
67721;SDS011;58309;45.292;11.820;2023-01-13T13:24:42;26.65;;;18.58;;
67721;SDS011;58309;45.292;11.820;2023-01-13T13:33:03;30.33;;;19.13;;
67721;SDS011;58309;45.292;11.820;2023-01-13T13:41:20;27.13;;;17.67;;
67721;SDS011;58309;45.292;11.820;2023-01-13T13:47:09;27.63;;;17.85;;
67721;SDS011;58309;45.292;11.820;2023-01-13T13:49:39;23.77;;;17.40;;
67721;SDS011;58309;45.292;11.820;2023-01-13T13:55:08;24.73;;;17.55;;
67721;SDS011;58309;45.292;11.820;2023-01-13T13:57:43;24.70;;;17.83;;
67721;SDS011;58309;45.292;11.820;2023-01-13T14:02:44;25.08;;;17.40;;
67721;SDS011;58309;45.292;11.820;2023-01-13T14:05:26;25.23;;;17.98;;
67721;SDS011;58309;45.292;11.820;2023-01-13T14:07:58;24.92;;;18.63;;
67721;SDS011;58309;45.292;11.820;2023-01-13T14:10:37;48.65;;;25.92;;
67721;SDS011;58309;45.292;11.820;2023-01-13T14:18:33;24.52;;;18.48;;
67721;SDS011;58309;45.292;11.820;2023-01-13T14:21:17;28.02;;;20.48;;
67721;SDS011;58309;45.292;11.820;2023-01-13T14:23:52;33.63;;;23.75;;
67721;SDS011;58309;45.292;11.820;2023-01-13T14:26:24;29.88;;;21.52;;
67721;SDS011;58309;45.292;11.820;2023-01-13T14:28:52;29.13;;;21.83;;
67721;SDS011;58309;45.292;11.820;2023-01-13T14:31:19;29.20;;;22.45;;
67721;SDS011;58309;45.292;11.820;2023-01-13T14:33:46;32.25;;;22.52;;
67721;SDS011;58309;45.292;11.820;2023-01-13T14:41:28;32.30;;;21.52;;
67721;SDS011;58309;45.292;11.820;2023-01-13T14:44:12;32.83;;;23.80;;
67721;SDS011;58309;45.292;11.820;2023-01-13T14:46:52;38.10;;;25.48;;
67721;SDS011;58309;45.292;11.820;2023-01-13T14:52:13;38.58;;;27.75;;
67721;SDS011;58309;45.292;11.820;2023-01-13T14:54:47;39.53;;;28.05;;
67721;SDS011;58309;45.292;11.820;2023-01-13T14:57:21;44.50;;;30.85;;
67721;SDS011;58309;45.292;11.820;2023-01-13T15:07:49;45.92;;;33.75;;
67721;SDS011;58309;45.292;11.820;2023-01-13T15:10:16;53.25;;;34.08;;
67721;SDS011;58309;45.292;11.820;2023-01-13T15:12:43;52.70;;;36.38;;
67721;SDS011;58309;45.292;11.820;2023-01-13T15:15:20;52.22;;;36.28;;
67721;SDS011;58309;45.292;11.820;2023-01-13T15:17:58;50.88;;;35.28;;
67721;SDS011;58309;45.292;11.820;2023-01-13T15:20:25;50.67;;;35.10;;
67721;SDS011;58309;45.292;11.820;2023-01-13T15:22:52;55.85;;;38.83;;
67721;SDS011;58309;45.292;11.820;2023-01-13T15:25:19;59.92;;;40.95;;
67721;SDS011;58309;45.292;11.820;2023-01-13T15:27:46;63.25;;;43.83;;
67721;SDS011;58309;45.292;11.820;2023-01-13T15:30:16;65.90;;;45.53;;
67721;SDS011;58309;45.292;11.820;2023-01-13T15:32:49;64.25;;;44.50;;
67721;SDS011;58309;45.292;11.820;2023-01-13T15:35:16;74.65;;;45.78;;
67721;SDS011;58309;45.292;11.820;2023-01-13T15:37:42;70.82;;;46.35;;
67721;SDS011;58309;45.292;11.820;2023-01-13T15:40:16;76.13;;;47.10;;
67721;SDS011;58309;45.292;11.820;2023-01-13T15:42:46;70.70;;;46.63;;
67721;SDS011;58309;45.292;11.820;2023-01-13T15:45:31;67.18;;;46.30;;
67721;SDS011;58309;45.292;11.820;2023-01-13T15:48:19;87.78;;;51.00;;
67721;SDS011;58309;45.292;11.820;2023-01-13T15:50:46;88.88;;;52.13;;
67721;SDS011;58309;45.292;11.820;2023-01-13T15:53:11;108.30;;;57.10;;
67721;SDS011;58309;45.292;11.820;2023-01-13T15:55:38;91.50;;;53.67;;
67721;SDS011;58309;45.292;11.820;2023-01-13T15:58:06;90.07;;;54.47;;
67721;SDS011;58309;45.292;11.820;2023-01-13T16:00:32;92.95;;;54.08;;
67721;SDS011;58309;45.292;11.820;2023-01-13T16:02:57;91.30;;;54.28;;
67721;SDS011;58309;45.292;11.820;2023-01-13T16:05:24;92.10;;;55.25;;
67721;SDS011;58309;45.292;11.820;2023-01-13T16:07:50;98.60;;;59.88;;
67721;SDS011;58309;45.292;11.820;2023-01-13T16:10:17;92.32;;;56.85;;
67721;SDS011;58309;45.292;11.820;2023-01-13T16:12:45;94.47;;;58.40;;
67721;SDS011;58309;45.292;11.820;2023-01-13T16:15:14;101.60;;;60.92;;
67721;SDS011;58309;45.292;11.820;2023-01-13T16:17:44;108.25;;;62.08;;
67721;SDS011;58309;45.292;11.820;2023-01-13T16:20:14;101.37;;;62.53;;
67721;SDS011;58309;45.292;11.820;2023-01-13T16:25:06;91.40;;;56.63;;
67721;SDS011;58309;45.292;11.820;2023-01-13T16:27:32;104.45;;;62.05;;
67721;SDS011;58309;45.292;11.820;2023-01-13T16:29:57;117.55;;;67.20;;
67721;SDS011;58309;45.292;11.820;2023-01-13T16:32:23;122.20;;;70.07;;
67721;SDS011;58309;45.292;11.820;2023-01-13T16:34:48;120.35;;;69.25;;
67721;SDS011;58309;45.292;11.820;2023-01-13T16:37:16;136.55;;;75.00;;
67721;SDS011;58309;45.292;11.820;2023-01-13T16:39:44;122.72;;;71.28;;
67721;SDS011;58309;45.292;11.820;2023-01-13T16:42:09;117.63;;;70.63;;
67721;SDS011;58309;45.292;11.820;2023-01-13T16:44:35;130.00;;;74.25;;
67721;SDS011;58309;45.292;11.820;2023-01-13T16:47:00;130.60;;;74.00;;
67721;SDS011;58309;45.292;11.820;2023-01-13T16:49:26;130.07;;;72.05;;
67721;SDS011;58309;45.292;11.820;2023-01-13T16:51:52;123.90;;;70.50;;
67721;SDS011;58309;45.292;11.820;2023-01-13T16:54:17;120.00;;;68.80;;
67721;SDS011;58309;45.292;11.820;2023-01-13T16:56:43;129.68;;;69.22;;
67721;SDS011;58309;45.292;11.820;2023-01-13T16:59:10;119.60;;;65.90;;
67721;SDS011;58309;45.292;11.820;2023-01-13T17:01:38;117.57;;;67.60;;
67721;SDS011;58309;45.292;11.820;2023-01-13T17:04:05;128.70;;;68.72;;
67721;SDS011;58309;45.292;11.820;2023-01-13T17:06:53;105.28;;;60.60;;
67721;SDS011;58309;45.292;11.820;2023-01-13T17:09:30;118.13;;;63.25;;
67721;SDS011;58309;45.292;11.820;2023-01-13T17:11:56;137.90;;;70.95;;
67721;SDS011;58309;45.292;11.820;2023-01-13T17:14:22;128.55;;;66.07;;
67721;SDS011;58309;45.292;11.820;2023-01-13T17:16:54;136.48;;;67.47;;
67721;SDS011;58309;45.292;11.820;2023-01-13T17:19:21;133.73;;;68.70;;
67721;SDS011;58309;45.292;11.820;2023-01-13T17:21:47;147.52;;;77.68;;